sensor_id;sensor_type;location;lat;lon;timestamp;temperature;humidity
9057;DHT22;4563;54.756;9.400;2023-07-22T00:01:07;17.60;71.70
9057;DHT22;4563;54.756;9.400;2023-07-22T00:03:34;17.50;71.60
9057;DHT22;4563;54.756;9.400;2023-07-22T00:06:05;17.50;71.60
9057;DHT22;4563;54.756;9.400;2023-07-22T00:08:31;17.50;71.60
9057;DHT22;4563;54.756;9.400;2023-07-22T00:11:00;17.50;71.70
9057;DHT22;4563;54.756;9.400;2023-07-22T00:13:27;17.40;71.70
9057;DHT22;4563;54.756;9.400;2023-07-22T00:15:54;17.40;71.70
9057;DHT22;4563;54.756;9.400;2023-07-22T00:18:21;17.40;71.60
9057;DHT22;4563;54.756;9.400;2023-07-22T00:20:47;17.40;71.70
9057;DHT22;4563;54.756;9.400;2023-07-22T00:23:17;17.40;71.60
9057;DHT22;4563;54.756;9.400;2023-07-22T00:25:45;17.30;71.60
9057;DHT22;4563;54.756;9.400;2023-07-22T00:28:13;17.30;71.60
9057;DHT22;4563;54.756;9.400;2023-07-22T00:30:40;17.30;71.60
9057;DHT22;4563;54.756;9.400;2023-07-22T00:33:09;17.30;71.60
9057;DHT22;4563;54.756;9.400;2023-07-22T00:35:36;17.20;71.60
9057;DHT22;4563;54.756;9.400;2023-07-22T00:38:03;17.20;71.60
9057;DHT22;4563;54.756;9.400;2023-07-22T00:40:30;17.20;71.70
9057;DHT22;4563;54.756;9.400;2023-07-22T00:42:57;17.20;71.70
9057;DHT22;4563;54.756;9.400;2023-07-22T00:45:26;17.10;71.70
9057;DHT22;4563;54.756;9.400;2023-07-22T00:47:53;17.10;71.70
9057;DHT22;4563;54.756;9.400;2023-07-22T00:50:20;17.10;71.70
9057;DHT22;4563;54.756;9.400;2023-07-22T00:52:48;17.10;71.90
9057;DHT22;4563;54.756;9.400;2023-07-22T00:55:14;17.00;71.80
9057;DHT22;4563;54.756;9.400;2023-07-22T00:57:41;17.00;71.90
9057;DHT22;4563;54.756;9.400;2023-07-22T01:00:09;17.00;72.00
9057;DHT22;4563;54.756;9.400;2023-07-22T01:02:39;17.00;72.20
9057;DHT22;4563;54.756;9.400;2023-07-22T01:05:06;16.90;72.20
9057;DHT22;4563;54.756;9.400;2023-07-22T01:07:35;16.90;72.20
9057;DHT22;4563;54.756;9.400;2023-07-22T01:10:04;16.90;72.30
9057;DHT22;4563;54.756;9.400;2023-07-22T01:12:32;16.90;72.40
9057;DHT22;4563;54.756;9.400;2023-07-22T01:14:58;17.00;72.60
9057;DHT22;4563;54.756;9.400;2023-07-22T01:17:26;16.90;72.50
9057;DHT22;4563;54.756;9.400;2023-07-22T01:19:54;16.90;72.70
9057;DHT22;4563;54.756;9.400;2023-07-22T01:22:22;16.90;72.80
9057;DHT22;4563;54.756;9.400;2023-07-22T01:24:50;16.90;72.80
9057;DHT22;4563;54.756;9.400;2023-07-22T01:27:18;16.80;72.70
9057;DHT22;4563;54.756;9.400;2023-07-22T01:29:45;16.90;72.70
9057;DHT22;4563;54.756;9.400;2023-07-22T01:32:12;16.90;72.80
9057;DHT22;4563;54.756;9.400;2023-07-22T01:34:38;16.80;72.70
9057;DHT22;4563;54.756;9.400;2023-07-22T01:37:05;16.80;72.80
9057;DHT22;4563;54.756;9.400;2023-07-22T01:39:32;16.80;72.90
9057;DHT22;4563;54.756;9.400;2023-07-22T01:42:00;16.80;72.90
9057;DHT22;4563;54.756;9.400;2023-07-22T01:44:28;16.80;73.00
9057;DHT22;4563;54.756;9.400;2023-07-22T01:46:55;16.80;73.00
9057;DHT22;4563;54.756;9.400;2023-07-22T01:49:21;16.80;73.00
9057;DHT22;4563;54.756;9.400;2023-07-22T01:51:49;16.80;73.00
9057;DHT22;4563;54.756;9.400;2023-07-22T01:54:16;16.80;73.10
9057;DHT22;4563;54.756;9.400;2023-07-22T01:56:43;16.70;73.00
9057;DHT22;4563;54.756;9.400;2023-07-22T01:59:11;16.70;73.10
9057;DHT22;4563;54.756;9.400;2023-07-22T02:01:38;16.70;73.20
9057;DHT22;4563;54.756;9.400;2023-07-22T02:04:05;16.70;73.20
9057;DHT22;4563;54.756;9.400;2023-07-22T02:06:33;16.70;73.40
9057;DHT22;4563;54.756;9.400;2023-07-22T02:09:00;16.70;73.50
9057;DHT22;4563;54.756;9.400;2023-07-22T02:11:33;16.70;73.50
9057;DHT22;4563;54.756;9.400;2023-07-22T02:14:00;16.70;73.60
9057;DHT22;4563;54.756;9.400;2023-07-22T02:16:28;16.70;73.70
9057;DHT22;4563;54.756;9.400;2023-07-22T02:18:55;16.70;73.70
9057;DHT22;4563;54.756;9.400;2023-07-22T02:21:22;16.70;73.70
9057;DHT22;4563;54.756;9.400;2023-07-22T02:23:49;16.60;73.60
9057;DHT22;4563;54.756;9.400;2023-07-22T02:26:16;16.60;74.40
9057;DHT22;4563;54.756;9.400;2023-07-22T02:28:42;16.70;73.70
9057;DHT22;4563;54.756;9.400;2023-07-22T02:31:10;16.60;73.60
9057;DHT22;4563;54.756;9.400;2023-07-22T02:33:38;16.70;73.70
9057;DHT22;4563;54.756;9.400;2023-07-22T02:36:05;16.60;73.70
9057;DHT22;4563;54.756;9.400;2023-07-22T02:38:31;16.60;73.60
9057;DHT22;4563;54.756;9.400;2023-07-22T02:41:02;16.60;73.50
9057;DHT22;4563;54.756;9.400;2023-07-22T02:43:31;16.60;73.60
9057;DHT22;4563;54.756;9.400;2023-07-22T02:45:59;16.70;73.70
9057;DHT22;4563;54.756;9.400;2023-07-22T02:48:26;16.60;73.60
9057;DHT22;4563;54.756;9.400;2023-07-22T02:50:54;16.60;73.60
9057;DHT22;4563;54.756;9.400;2023-07-22T02:53:21;16.60;73.70
9057;DHT22;4563;54.756;9.400;2023-07-22T02:55:48;16.60;73.70
9057;DHT22;4563;54.756;9.400;2023-07-22T02:58:15;16.60;73.80
9057;DHT22;4563;54.756;9.400;2023-07-22T03:00:42;16.60;73.70
9057;DHT22;4563;54.756;9.400;2023-07-22T03:03:09;16.60;73.70
9057;DHT22;4563;54.756;9.400;2023-07-22T03:05:36;16.50;73.50
9057;DHT22;4563;54.756;9.400;2023-07-22T03:08:04;16.50;73.50
9057;DHT22;4563;54.756;9.400;2023-07-22T03:10:32;16.50;73.50
9057;DHT22;4563;54.756;9.400;2023-07-22T03:12:59;16.50;73.50
9057;DHT22;4563;54.756;9.400;2023-07-22T03:15:29;16.50;73.40
9057;DHT22;4563;54.756;9.400;2023-07-22T03:17:56;16.50;73.40
9057;DHT22;4563;54.756;9.400;2023-07-22T03:20:24;16.50;73.40
9057;DHT22;4563;54.756;9.400;2023-07-22T03:22:51;16.40;73.30
9057;DHT22;4563;54.756;9.400;2023-07-22T03:25:21;16.40;73.30
9057;DHT22;4563;54.756;9.400;2023-07-22T03:27:48;16.40;73.30
9057;DHT22;4563;54.756;9.400;2023-07-22T03:30:16;16.40;73.30
9057;DHT22;4563;54.756;9.400;2023-07-22T03:32:44;16.40;73.40
9057;DHT22;4563;54.756;9.400;2023-07-22T03:35:11;16.40;73.40
9057;DHT22;4563;54.756;9.400;2023-07-22T03:37:38;16.40;73.30
9057;DHT22;4563;54.756;9.400;2023-07-22T03:40:06;16.40;73.30
9057;DHT22;4563;54.756;9.400;2023-07-22T03:42:38;16.40;73.40
9057;DHT22;4563;54.756;9.400;2023-07-22T03:45:07;16.40;73.40
9057;DHT22;4563;54.756;9.400;2023-07-22T03:47:34;16.30;73.30
9057;DHT22;4563;54.756;9.400;2023-07-22T03:50:00;16.30;73.30
9057;DHT22;4563;54.756;9.400;2023-07-22T03:52:27;16.30;73.30
9057;DHT22;4563;54.756;9.400;2023-07-22T03:54:54;16.30;73.20
9057;DHT22;4563;54.756;9.400;2023-07-22T03:57:25;16.30;73.30
9057;DHT22;4563;54.756;9.400;2023-07-22T03:59:56;16.20;73.20
9057;DHT22;4563;54.756;9.400;2023-07-22T04:02:26;16.20;73.20
9057;DHT22;4563;54.756;9.400;2023-07-22T04:04:54;16.20;73.20
9057;DHT22;4563;54.756;9.400;2023-07-22T04:07:21;16.20;73.30
9057;DHT22;4563;54.756;9.400;2023-07-22T04:09:48;16.20;73.30
9057;DHT22;4563;54.756;9.400;2023-07-22T04:12:15;16.20;73.40
9057;DHT22;4563;54.756;9.400;2023-07-22T04:14:42;16.20;73.50
9057;DHT22;4563;54.756;9.400;2023-07-22T04:17:10;16.20;73.60
9057;DHT22;4563;54.756;9.400;2023-07-22T04:19:37;16.20;73.70
9057;DHT22;4563;54.756;9.400;2023-07-22T04:22:04;16.20;73.80
9057;DHT22;4563;54.756;9.400;2023-07-22T04:24:32;16.10;73.80
9057;DHT22;4563;54.756;9.400;2023-07-22T04:27:01;16.10;73.90
9057;DHT22;4563;54.756;9.400;2023-07-22T04:29:28;16.10;74.10
9057;DHT22;4563;54.756;9.400;2023-07-22T04:31:57;16.10;74.10
9057;DHT22;4563;54.756;9.400;2023-07-22T04:34:28;16.20;74.40
9057;DHT22;4563;54.756;9.400;2023-07-22T04:36:55;16.10;74.50
9057;DHT22;4563;54.756;9.400;2023-07-22T04:39:23;16.10;74.50
9057;DHT22;4563;54.756;9.400;2023-07-22T04:41:49;16.10;74.60
9057;DHT22;4563;54.756;9.400;2023-07-22T04:44:17;16.20;74.90
9057;DHT22;4563;54.756;9.400;2023-07-22T04:46:44;16.20;75.10
9057;DHT22;4563;54.756;9.400;2023-07-22T04:49:11;16.20;75.30
9057;DHT22;4563;54.756;9.400;2023-07-22T04:51:39;16.20;75.60
9057;DHT22;4563;54.756;9.400;2023-07-22T04:54:09;16.20;75.70
9057;DHT22;4563;54.756;9.400;2023-07-22T04:56:36;16.30;76.00
9057;DHT22;4563;54.756;9.400;2023-07-22T04:59:04;16.30;76.10
9057;DHT22;4563;54.756;9.400;2023-07-22T05:01:31;16.30;76.20
9057;DHT22;4563;54.756;9.400;2023-07-22T05:03:58;16.40;76.40
9057;DHT22;4563;54.756;9.400;2023-07-22T05:06:25;16.40;76.40
9057;DHT22;4563;54.756;9.400;2023-07-22T05:08:53;16.40;76.30
9057;DHT22;4563;54.756;9.400;2023-07-22T05:11:20;16.50;76.30
9057;DHT22;4563;54.756;9.400;2023-07-22T05:13:48;16.50;76.20
9057;DHT22;4563;54.756;9.400;2023-07-22T05:16:15;16.60;76.40
9057;DHT22;4563;54.756;9.400;2023-07-22T05:18:42;16.60;76.50
9057;DHT22;4563;54.756;9.400;2023-07-22T05:21:09;16.70;76.60
9057;DHT22;4563;54.756;9.400;2023-07-22T05:23:35;16.70;76.60
9057;DHT22;4563;54.756;9.400;2023-07-22T05:26:04;16.80;76.70
9057;DHT22;4563;54.756;9.400;2023-07-22T05:28:30;16.90;76.80
9057;DHT22;4563;54.756;9.400;2023-07-22T05:30:57;16.90;76.80
9057;DHT22;4563;54.756;9.400;2023-07-22T05:33:24;17.00;76.70
9057;DHT22;4563;54.756;9.400;2023-07-22T05:35:51;17.00;76.40
9057;DHT22;4563;54.756;9.400;2023-07-22T05:38:17;17.10;76.10
9057;DHT22;4563;54.756;9.400;2023-07-22T05:40:44;17.10;75.70
9057;DHT22;4563;54.756;9.400;2023-07-22T05:43:12;17.20;75.50
9057;DHT22;4563;54.756;9.400;2023-07-22T05:45:39;17.20;75.30
9057;DHT22;4563;54.756;9.400;2023-07-22T05:48:06;17.30;75.30
9057;DHT22;4563;54.756;9.400;2023-07-22T05:50:33;17.30;75.40
9057;DHT22;4563;54.756;9.400;2023-07-22T05:52:59;17.30;75.40
9057;DHT22;4563;54.756;9.400;2023-07-22T05:55:26;17.40;75.70
9057;DHT22;4563;54.756;9.400;2023-07-22T05:57:53;17.40;75.70
9057;DHT22;4563;54.756;9.400;2023-07-22T06:00:21;17.50;76.00
9057;DHT22;4563;54.756;9.400;2023-07-22T06:02:48;17.50;76.60
9057;DHT22;4563;54.756;9.400;2023-07-22T06:05:15;17.60;75.90
9057;DHT22;4563;54.756;9.400;2023-07-22T06:07:42;17.70;76.00
9057;DHT22;4563;54.756;9.400;2023-07-22T06:10:09;17.80;76.00
9057;DHT22;4563;54.756;9.400;2023-07-22T06:12:36;17.90;75.90
9057;DHT22;4563;54.756;9.400;2023-07-22T06:15:04;17.90;75.60
9057;DHT22;4563;54.756;9.400;2023-07-22T06:17:34;18.10;75.60
9057;DHT22;4563;54.756;9.400;2023-07-22T06:20:01;18.20;75.40
9057;DHT22;4563;54.756;9.400;2023-07-22T06:22:27;18.20;75.30
9057;DHT22;4563;54.756;9.400;2023-07-22T06:24:54;18.30;75.10
9057;DHT22;4563;54.756;9.400;2023-07-22T06:27:21;18.50;74.80
9057;DHT22;4563;54.756;9.400;2023-07-22T06:29:48;18.50;74.80
9057;DHT22;4563;54.756;9.400;2023-07-22T06:32:15;18.60;74.40
9057;DHT22;4563;54.756;9.400;2023-07-22T06:34:43;18.70;74.20
9057;DHT22;4563;54.756;9.400;2023-07-22T06:37:10;18.80;73.90
9057;DHT22;4563;54.756;9.400;2023-07-22T06:39:37;18.90;73.80
9057;DHT22;4563;54.756;9.400;2023-07-22T06:42:04;18.90;73.60
9057;DHT22;4563;54.756;9.400;2023-07-22T06:44:31;19.00;73.20
9057;DHT22;4563;54.756;9.400;2023-07-22T06:46:58;19.00;72.80
9057;DHT22;4563;54.756;9.400;2023-07-22T06:49:24;19.00;72.50
9057;DHT22;4563;54.756;9.400;2023-07-22T06:51:53;19.10;72.40
9057;DHT22;4563;54.756;9.400;2023-07-22T06:54:19;19.10;72.80
9057;DHT22;4563;54.756;9.400;2023-07-22T06:56:46;19.10;71.80
9057;DHT22;4563;54.756;9.400;2023-07-22T06:59:13;19.10;71.60
9057;DHT22;4563;54.756;9.400;2023-07-22T07:01:40;19.10;71.50
9057;DHT22;4563;54.756;9.400;2023-07-22T07:04:10;19.10;71.50
9057;DHT22;4563;54.756;9.400;2023-07-22T07:06:37;19.10;71.50
9057;DHT22;4563;54.756;9.400;2023-07-22T07:09:05;19.10;71.50
9057;DHT22;4563;54.756;9.400;2023-07-22T07:11:32;19.10;71.30
9057;DHT22;4563;54.756;9.400;2023-07-22T07:13:59;19.10;71.30
9057;DHT22;4563;54.756;9.400;2023-07-22T07:16:26;19.10;71.20
9057;DHT22;4563;54.756;9.400;2023-07-22T07:18:54;19.10;71.90
9057;DHT22;4563;54.756;9.400;2023-07-22T07:21:21;19.10;71.10
9057;DHT22;4563;54.756;9.400;2023-07-22T07:23:48;19.10;71.00
9057;DHT22;4563;54.756;9.400;2023-07-22T07:26:17;19.10;71.00
9057;DHT22;4563;54.756;9.400;2023-07-22T07:28:45;19.00;70.80
9057;DHT22;4563;54.756;9.400;2023-07-22T07:31:12;19.00;70.80
9057;DHT22;4563;54.756;9.400;2023-07-22T07:33:39;19.00;70.70
9057;DHT22;4563;54.756;9.400;2023-07-22T07:36:05;19.00;70.80
9057;DHT22;4563;54.756;9.400;2023-07-22T07:38:32;19.00;71.00
9057;DHT22;4563;54.756;9.400;2023-07-22T07:41:02;19.10;71.20
9057;DHT22;4563;54.756;9.400;2023-07-22T07:43:31;19.10;71.00
9057;DHT22;4563;54.756;9.400;2023-07-22T07:46:18;19.10;71.00
9057;DHT22;4563;54.756;9.400;2023-07-22T07:48:46;19.20;71.50
9057;DHT22;4563;54.756;9.400;2023-07-22T07:51:15;19.20;70.60
9057;DHT22;4563;54.756;9.400;2023-07-22T07:53:42;19.20;70.50
9057;DHT22;4563;54.756;9.400;2023-07-22T07:56:11;19.20;70.40
9057;DHT22;4563;54.756;9.400;2023-07-22T07:58:39;19.20;70.50
9057;DHT22;4563;54.756;9.400;2023-07-22T08:01:06;19.20;70.70
9057;DHT22;4563;54.756;9.400;2023-07-22T08:03:35;19.20;71.10
9057;DHT22;4563;54.756;9.400;2023-07-22T08:06:02;19.30;71.50
9057;DHT22;4563;54.756;9.400;2023-07-22T08:08:29;19.30;71.80
9057;DHT22;4563;54.756;9.400;2023-07-22T08:10:59;19.40;71.60
9057;DHT22;4563;54.756;9.400;2023-07-22T08:13:27;19.50;71.50
9057;DHT22;4563;54.756;9.400;2023-07-22T08:15:57;19.60;71.30
9057;DHT22;4563;54.756;9.400;2023-07-22T08:18:23;19.70;70.90
9057;DHT22;4563;54.756;9.400;2023-07-22T08:20:51;19.80;70.40
9057;DHT22;4563;54.756;9.400;2023-07-22T08:23:18;20.00;69.90
9057;DHT22;4563;54.756;9.400;2023-07-22T08:25:45;20.10;69.40
9057;DHT22;4563;54.756;9.400;2023-07-22T08:28:12;20.10;68.70
9057;DHT22;4563;54.756;9.400;2023-07-22T08:30:39;20.20;68.40
9057;DHT22;4563;54.756;9.400;2023-07-22T08:33:09;20.30;67.90
9057;DHT22;4563;54.756;9.400;2023-07-22T08:35:37;20.40;67.60
9057;DHT22;4563;54.756;9.400;2023-07-22T08:38:04;20.50;67.70
9057;DHT22;4563;54.756;9.400;2023-07-22T08:40:33;20.60;67.70
9057;DHT22;4563;54.756;9.400;2023-07-22T08:43:02;20.70;67.20
9057;DHT22;4563;54.756;9.400;2023-07-22T08:45:31;20.80;67.30
9057;DHT22;4563;54.756;9.400;2023-07-22T08:48:03;21.00;67.20
9057;DHT22;4563;54.756;9.400;2023-07-22T08:50:44;21.20;66.70
9057;DHT22;4563;54.756;9.400;2023-07-22T08:53:12;21.30;67.10
9057;DHT22;4563;54.756;9.400;2023-07-22T08:55:39;21.50;66.30
9057;DHT22;4563;54.756;9.400;2023-07-22T08:58:08;21.70;66.00
9057;DHT22;4563;54.756;9.400;2023-07-22T09:00:36;21.90;65.60
9057;DHT22;4563;54.756;9.400;2023-07-22T09:03:03;22.00;65.10
9057;DHT22;4563;54.756;9.400;2023-07-22T09:05:32;22.10;64.80
9057;DHT22;4563;54.756;9.400;2023-07-22T09:08:02;22.20;64.50
9057;DHT22;4563;54.756;9.400;2023-07-22T09:10:30;22.30;64.10
9057;DHT22;4563;54.756;9.400;2023-07-22T09:12:57;22.40;63.70
9057;DHT22;4563;54.756;9.400;2023-07-22T09:15:25;22.50;64.30
9057;DHT22;4563;54.756;9.400;2023-07-22T09:17:52;22.50;62.90
9057;DHT22;4563;54.756;9.400;2023-07-22T09:20:20;22.50;62.50
9057;DHT22;4563;54.756;9.400;2023-07-22T09:22:49;22.60;62.70
9057;DHT22;4563;54.756;9.400;2023-07-22T09:25:19;22.60;62.70
9057;DHT22;4563;54.756;9.400;2023-07-22T09:27:46;22.60;62.60
9057;DHT22;4563;54.756;9.400;2023-07-22T09:30:24;22.60;62.30
9057;DHT22;4563;54.756;9.400;2023-07-22T09:32:52;22.60;63.20
9057;DHT22;4563;54.756;9.400;2023-07-22T09:35:19;22.50;62.50
9057;DHT22;4563;54.756;9.400;2023-07-22T09:37:46;22.60;62.70
9057;DHT22;4563;54.756;9.400;2023-07-22T09:40:19;22.60;62.70
9057;DHT22;4563;54.756;9.400;2023-07-22T09:42:47;22.60;63.40
9057;DHT22;4563;54.756;9.400;2023-07-22T09:45:14;22.60;63.30
9057;DHT22;4563;54.756;9.400;2023-07-22T09:47:42;22.70;63.40
9057;DHT22;4563;54.756;9.400;2023-07-22T09:50:11;22.70;63.50
9057;DHT22;4563;54.756;9.400;2023-07-22T09:52:46;22.80;63.60
9057;DHT22;4563;54.756;9.400;2023-07-22T09:55:20;22.90;64.30
9057;DHT22;4563;54.756;9.400;2023-07-22T09:57:50;23.00;64.00
9057;DHT22;4563;54.756;9.400;2023-07-22T10:00:17;23.10;63.20
9057;DHT22;4563;54.756;9.400;2023-07-22T10:02:47;23.20;62.80
9057;DHT22;4563;54.756;9.400;2023-07-22T10:05:16;23.30;63.00
9057;DHT22;4563;54.756;9.400;2023-07-22T10:07:44;23.30;63.10
9057;DHT22;4563;54.756;9.400;2023-07-22T10:10:12;23.40;63.20
9057;DHT22;4563;54.756;9.400;2023-07-22T10:12:43;23.50;62.80
9057;DHT22;4563;54.756;9.400;2023-07-22T10:15:11;23.60;62.50
9057;DHT22;4563;54.756;9.400;2023-07-22T10:17:39;23.70;62.30
9057;DHT22;4563;54.756;9.400;2023-07-22T10:20:07;23.80;61.70
9057;DHT22;4563;54.756;9.400;2023-07-22T10:22:36;24.00;61.60
9057;DHT22;4563;54.756;9.400;2023-07-22T10:25:05;24.10;60.90
9057;DHT22;4563;54.756;9.400;2023-07-22T10:27:33;24.30;61.30
9057;DHT22;4563;54.756;9.400;2023-07-22T10:30:02;24.50;60.60
9057;DHT22;4563;54.756;9.400;2023-07-22T10:32:34;24.70;60.20
9057;DHT22;4563;54.756;9.400;2023-07-22T10:35:01;24.90;61.10
9057;DHT22;4563;54.756;9.400;2023-07-22T10:37:32;25.10;59.50
9057;DHT22;4563;54.756;9.400;2023-07-22T10:40:01;25.30;60.60
9057;DHT22;4563;54.756;9.400;2023-07-22T10:42:31;25.50;59.20
9057;DHT22;4563;54.756;9.400;2023-07-22T10:45:01;25.70;59.80
9057;DHT22;4563;54.756;9.400;2023-07-22T10:47:32;25.90;59.50
9057;DHT22;4563;54.756;9.400;2023-07-22T10:50:05;26.10;59.30
9057;DHT22;4563;54.756;9.400;2023-07-22T10:52:41;26.30;60.30
9057;DHT22;4563;54.756;9.400;2023-07-22T10:55:18;26.40;61.10
9057;DHT22;4563;54.756;9.400;2023-07-22T10:57:49;26.60;61.40
9057;DHT22;4563;54.756;9.400;2023-07-22T11:00:21;26.70;58.40
9057;DHT22;4563;54.756;9.400;2023-07-22T11:03:09;26.80;58.40
9057;DHT22;4563;54.756;9.400;2023-07-22T11:05:49;26.90;61.90
9057;DHT22;4563;54.756;9.400;2023-07-22T11:08:16;26.90;59.60
9057;DHT22;4563;54.756;9.400;2023-07-22T11:10:54;27.00;54.60
9057;DHT22;4563;54.756;9.400;2023-07-22T11:13:27;27.00;58.30
9057;DHT22;4563;54.756;9.400;2023-07-22T11:15:59;27.10;57.20
9057;DHT22;4563;54.756;9.400;2023-07-22T11:18:36;27.10;55.90
9057;DHT22;4563;54.756;9.400;2023-07-22T11:21:07;27.10;57.30
9057;DHT22;4563;54.756;9.400;2023-07-22T11:23:34;27.10;55.00
9057;DHT22;4563;54.756;9.400;2023-07-22T11:26:02;27.10;53.20
9057;DHT22;4563;54.756;9.400;2023-07-22T11:28:28;27.10;53.00
9057;DHT22;4563;54.756;9.400;2023-07-22T11:30:55;27.10;52.60
9057;DHT22;4563;54.756;9.400;2023-07-22T11:33:25;27.10;52.10
9057;DHT22;4563;54.756;9.400;2023-07-22T11:35:52;27.00;52.00
9057;DHT22;4563;54.756;9.400;2023-07-22T11:38:19;27.10;52.00
9057;DHT22;4563;54.756;9.400;2023-07-22T11:40:46;27.00;51.70
9057;DHT22;4563;54.756;9.400;2023-07-22T11:43:13;26.90;51.30
9057;DHT22;4563;54.756;9.400;2023-07-22T11:45:40;26.80;51.20
9057;DHT22;4563;54.756;9.400;2023-07-22T11:48:09;26.80;50.70
9057;DHT22;4563;54.756;9.400;2023-07-22T11:50:38;26.70;50.70
9057;DHT22;4563;54.756;9.400;2023-07-22T11:53:05;26.70;50.80
9057;DHT22;4563;54.756;9.400;2023-07-22T11:55:34;26.50;51.10
9057;DHT22;4563;54.756;9.400;2023-07-22T11:58:02;26.50;50.90
9057;DHT22;4563;54.756;9.400;2023-07-22T12:00:32;26.40;50.70
9057;DHT22;4563;54.756;9.400;2023-07-22T12:03:05;26.20;50.90
9057;DHT22;4563;54.756;9.400;2023-07-22T12:05:35;26.10;52.40
9057;DHT22;4563;54.756;9.400;2023-07-22T12:08:05;26.00;52.70
9057;DHT22;4563;54.756;9.400;2023-07-22T12:10:32;25.90;53.10
9057;DHT22;4563;54.756;9.400;2023-07-22T12:13:00;25.80;53.50
9057;DHT22;4563;54.756;9.400;2023-07-22T12:15:27;25.60;53.70
9057;DHT22;4563;54.756;9.400;2023-07-22T12:17:56;25.50;53.60
9057;DHT22;4563;54.756;9.400;2023-07-22T12:20:24;25.40;54.00
9057;DHT22;4563;54.756;9.400;2023-07-22T12:22:52;25.20;54.30
9057;DHT22;4563;54.756;9.400;2023-07-22T12:25:21;25.10;54.60
9057;DHT22;4563;54.756;9.400;2023-07-22T12:27:47;25.00;54.90
9057;DHT22;4563;54.756;9.400;2023-07-22T12:30:15;24.90;54.90
9057;DHT22;4563;54.756;9.400;2023-07-22T12:32:42;24.80;55.00
9057;DHT22;4563;54.756;9.400;2023-07-22T12:35:09;24.80;55.10
9057;DHT22;4563;54.756;9.400;2023-07-22T12:37:37;24.70;55.10
9057;DHT22;4563;54.756;9.400;2023-07-22T12:40:05;24.60;55.10
9057;DHT22;4563;54.756;9.400;2023-07-22T12:42:35;24.50;55.10
9057;DHT22;4563;54.756;9.400;2023-07-22T12:45:02;24.40;55.00
9057;DHT22;4563;54.756;9.400;2023-07-22T12:47:29;24.30;55.10
9057;DHT22;4563;54.756;9.400;2023-07-22T12:49:56;24.20;55.40
9057;DHT22;4563;54.756;9.400;2023-07-22T12:52:23;24.20;55.50
9057;DHT22;4563;54.756;9.400;2023-07-22T12:54:50;24.10;55.40
9057;DHT22;4563;54.756;9.400;2023-07-22T12:57:17;24.00;55.60
9057;DHT22;4563;54.756;9.400;2023-07-22T12:59:45;23.90;55.90
9057;DHT22;4563;54.756;9.400;2023-07-22T13:02:12;23.90;56.40
9057;DHT22;4563;54.756;9.400;2023-07-22T13:04:39;23.80;56.50
9057;DHT22;4563;54.756;9.400;2023-07-22T13:07:06;23.80;56.80
9057;DHT22;4563;54.756;9.400;2023-07-22T13:09:33;23.70;57.20
9057;DHT22;4563;54.756;9.400;2023-07-22T13:12:03;23.60;57.20
9057;DHT22;4563;54.756;9.400;2023-07-22T13:14:30;23.60;57.20
9057;DHT22;4563;54.756;9.400;2023-07-22T13:16:59;23.50;57.30
9057;DHT22;4563;54.756;9.400;2023-07-22T13:19:26;23.50;57.30
9057;DHT22;4563;54.756;9.400;2023-07-22T13:21:53;23.50;57.50
9057;DHT22;4563;54.756;9.400;2023-07-22T13:24:21;23.40;57.70
9057;DHT22;4563;54.756;9.400;2023-07-22T13:26:48;23.40;57.80
9057;DHT22;4563;54.756;9.400;2023-07-22T13:29:15;23.40;57.80
9057;DHT22;4563;54.756;9.400;2023-07-22T13:31:42;23.30;57.80
9057;DHT22;4563;54.756;9.400;2023-07-22T13:34:10;23.20;58.00
9057;DHT22;4563;54.756;9.400;2023-07-22T13:36:40;23.10;58.00
9057;DHT22;4563;54.756;9.400;2023-07-22T13:39:07;23.10;58.00
9057;DHT22;4563;54.756;9.400;2023-07-22T13:41:34;23.10;58.10
9057;DHT22;4563;54.756;9.400;2023-07-22T13:44:01;23.00;58.20
9057;DHT22;4563;54.756;9.400;2023-07-22T13:46:28;23.00;58.50
9057;DHT22;4563;54.756;9.400;2023-07-22T13:48:55;23.00;58.70
9057;DHT22;4563;54.756;9.400;2023-07-22T13:51:25;22.90;58.60
9057;DHT22;4563;54.756;9.400;2023-07-22T13:53:52;22.90;58.70
9057;DHT22;4563;54.756;9.400;2023-07-22T13:56:20;22.90;58.90
9057;DHT22;4563;54.756;9.400;2023-07-22T13:58:47;22.80;59.10
9057;DHT22;4563;54.756;9.400;2023-07-22T14:01:14;22.70;59.20
9057;DHT22;4563;54.756;9.400;2023-07-22T14:03:41;22.70;59.30
9057;DHT22;4563;54.756;9.400;2023-07-22T14:06:08;22.70;59.50
9057;DHT22;4563;54.756;9.400;2023-07-22T14:08:36;22.60;59.60
9057;DHT22;4563;54.756;9.400;2023-07-22T14:11:04;22.60;59.80
9057;DHT22;4563;54.756;9.400;2023-07-22T14:13:31;22.50;59.90
9057;DHT22;4563;54.756;9.400;2023-07-22T14:15:58;22.50;60.40
9057;DHT22;4563;54.756;9.400;2023-07-22T14:18:25;22.40;60.70
9057;DHT22;4563;54.756;9.400;2023-07-22T14:20:51;22.40;61.10
9057;DHT22;4563;54.756;9.400;2023-07-22T14:23:18;22.30;61.20
9057;DHT22;4563;54.756;9.400;2023-07-22T14:25:47;22.20;61.30
9057;DHT22;4563;54.756;9.400;2023-07-22T14:28:16;22.20;61.80
9057;DHT22;4563;54.756;9.400;2023-07-22T14:30:43;22.20;62.00
9057;DHT22;4563;54.756;9.400;2023-07-22T14:33:09;22.10;61.60
9057;DHT22;4563;54.756;9.400;2023-07-22T14:35:36;22.10;61.40
9057;DHT22;4563;54.756;9.400;2023-07-22T14:38:03;22.00;61.30
9057;DHT22;4563;54.756;9.400;2023-07-22T14:40:30;22.00;61.10
9057;DHT22;4563;54.756;9.400;2023-07-22T14:42:58;21.90;61.10
9057;DHT22;4563;54.756;9.400;2023-07-22T14:45:25;21.80;60.90
9057;DHT22;4563;54.756;9.400;2023-07-22T14:47:52;21.80;60.90
9057;DHT22;4563;54.756;9.400;2023-07-22T14:50:19;21.70;61.10
9057;DHT22;4563;54.756;9.400;2023-07-22T14:52:46;21.70;61.40
9057;DHT22;4563;54.756;9.400;2023-07-22T14:55:13;21.60;61.50
9057;DHT22;4563;54.756;9.400;2023-07-22T14:57:40;21.50;61.30
9057;DHT22;4563;54.756;9.400;2023-07-22T15:00:09;21.50;61.40
9057;DHT22;4563;54.756;9.400;2023-07-22T15:02:36;21.40;61.40
9057;DHT22;4563;54.756;9.400;2023-07-22T15:05:03;21.30;61.40
9057;DHT22;4563;54.756;9.400;2023-07-22T15:07:30;21.30;61.80
9057;DHT22;4563;54.756;9.400;2023-07-22T15:09:57;21.20;61.80
9057;DHT22;4563;54.756;9.400;2023-07-22T15:12:24;21.20;62.10
9057;DHT22;4563;54.756;9.400;2023-07-22T15:14:51;21.10;62.30
9057;DHT22;4563;54.756;9.400;2023-07-22T15:17:19;21.10;62.50
9057;DHT22;4563;54.756;9.400;2023-07-22T15:19:46;21.00;62.80
9057;DHT22;4563;54.756;9.400;2023-07-22T15:22:13;21.00;62.90
9057;DHT22;4563;54.756;9.400;2023-07-22T15:24:40;20.90;62.90
9057;DHT22;4563;54.756;9.400;2023-07-22T15:27:07;20.80;63.00
9057;DHT22;4563;54.756;9.400;2023-07-22T15:29:37;20.80;63.30
9057;DHT22;4563;54.756;9.400;2023-07-22T15:32:07;20.80;63.40
9057;DHT22;4563;54.756;9.400;2023-07-22T15:34:35;20.70;63.60
9057;DHT22;4563;54.756;9.400;2023-07-22T15:37:02;20.70;63.40
9057;DHT22;4563;54.756;9.400;2023-07-22T15:39:29;20.60;63.40
9057;DHT22;4563;54.756;9.400;2023-07-22T15:41:56;20.60;64.10
9057;DHT22;4563;54.756;9.400;2023-07-22T15:44:23;20.60;63.80
9057;DHT22;4563;54.756;9.400;2023-07-22T15:46:52;20.60;63.80
9057;DHT22;4563;54.756;9.400;2023-07-22T15:49:19;20.50;64.00
9057;DHT22;4563;54.756;9.400;2023-07-22T15:51:47;20.50;64.30
9057;DHT22;4563;54.756;9.400;2023-07-22T15:54:14;20.40;64.40
9057;DHT22;4563;54.756;9.400;2023-07-22T15:56:41;20.40;64.60
9057;DHT22;4563;54.756;9.400;2023-07-22T15:59:08;20.40;64.80
9057;DHT22;4563;54.756;9.400;2023-07-22T16:01:36;20.30;64.90
9057;DHT22;4563;54.756;9.400;2023-07-22T16:04:03;20.30;65.10
9057;DHT22;4563;54.756;9.400;2023-07-22T16:06:30;20.30;65.30